sensor_id;sensor_type;location;lat;lon;timestamp;pressure;altitude;pressure_sealevel;temperature;humidity
46778;BME280;32536;47.128;8.746;2023-11-21T00:02:25;91177.50;;;10.98;48.13
46778;BME280;32536;47.128;8.746;2023-11-21T00:04:52;91173.25;;;11.00;47.62
46778;BME280;32536;47.128;8.746;2023-11-21T00:07:19;91180.84;;;11.02;47.41
46778;BME280;32536;47.128;8.746;2023-11-21T00:09:47;91174.41;;;10.99;47.47
46778;BME280;32536;47.128;8.746;2023-11-21T00:12:14;91170.66;;;10.97;47.70
46778;BME280;32536;47.128;8.746;2023-11-21T00:14:41;91163.25;;;11.01;47.87
46778;BME280;32536;47.128;8.746;2023-11-21T00:17:07;91152.97;;;10.99;47.28
46778;BME280;32536;47.128;8.746;2023-11-21T00:19:34;91162.59;;;10.97;47.91
46778;BME280;32536;47.128;8.746;2023-11-21T00:22:01;91153.75;;;11.00;47.99
46778;BME280;32536;47.128;8.746;2023-11-21T00:24:28;91160.44;;;11.08;48.50
46778;BME280;32536;47.128;8.746;2023-11-21T00:26:55;91145.69;;;11.16;47.88
46778;BME280;32536;47.128;8.746;2023-11-21T00:29:21;91155.81;;;11.25;48.16
46778;BME280;32536;47.128;8.746;2023-11-21T00:31:48;91154.66;;;11.26;47.74
46778;BME280;32536;47.128;8.746;2023-11-21T00:34:31;91151.56;;;11.11;46.46
46778;BME280;32536;47.128;8.746;2023-11-21T00:36:58;91159.34;;;11.05;47.74
46778;BME280;32536;47.128;8.746;2023-11-21T00:39:25;91156.81;;;10.98;47.75
46778;BME280;32536;47.128;8.746;2023-11-21T00:41:52;91148.84;;;10.95;47.88
46778;BME280;32536;47.128;8.746;2023-11-21T00:44:19;91146.19;;;10.95;47.77
46778;BME280;32536;47.128;8.746;2023-11-21T00:46:45;91147.19;;;11.01;47.80
46778;BME280;32536;47.128;8.746;2023-11-21T00:49:12;91142.44;;;11.09;48.29
46778;BME280;32536;47.128;8.746;2023-11-21T00:51:39;91145.34;;;11.14;47.73
46778;BME280;32536;47.128;8.746;2023-11-21T00:54:06;91149.88;;;11.17;47.85
46778;BME280;32536;47.128;8.746;2023-11-21T00:56:33;91145.19;;;11.21;47.94
46778;BME280;32536;47.128;8.746;2023-11-21T00:58:59;91147.28;;;11.30;48.26
46778;BME280;32536;47.128;8.746;2023-11-21T01:01:26;91149.88;;;11.34;47.97
46778;BME280;32536;47.128;8.746;2023-11-21T01:03:53;91147.50;;;11.36;47.75
46778;BME280;32536;47.128;8.746;2023-11-21T01:06:20;91148.59;;;11.38;47.73
46778;BME280;32536;47.128;8.746;2023-11-21T01:08:46;91146.25;;;11.41;47.98
46778;BME280;32536;47.128;8.746;2023-11-21T01:11:13;91151.97;;;11.43;47.78
46778;BME280;32536;47.128;8.746;2023-11-21T01:13:41;91140.06;;;11.44;47.79
46778;BME280;32536;47.128;8.746;2023-11-21T01:16:08;91139.28;;;11.43;48.12
46778;BME280;32536;47.128;8.746;2023-11-21T01:18:35;91144.41;;;11.37;47.57
46778;BME280;32536;47.128;8.746;2023-11-21T01:21:02;91142.66;;;11.31;47.87
46778;BME280;32536;47.128;8.746;2023-11-21T01:23:29;91139.72;;;11.25;47.51
46778;BME280;32536;47.128;8.746;2023-11-21T01:25:56;91133.78;;;11.17;48.00
46778;BME280;32536;47.128;8.746;2023-11-21T01:28:23;91130.38;;;11.17;48.24
46778;BME280;32536;47.128;8.746;2023-11-21T01:30:50;91130.47;;;11.13;48.50
46778;BME280;32536;47.128;8.746;2023-11-21T01:33:17;91127.78;;;11.13;47.55
46778;BME280;32536;47.128;8.746;2023-11-21T01:35:44;91128.50;;;11.14;47.74
46778;BME280;32536;47.128;8.746;2023-11-21T01:38:12;91122.41;;;11.13;47.95
46778;BME280;32536;47.128;8.746;2023-11-21T01:40:38;91121.22;;;11.14;48.14
46778;BME280;32536;47.128;8.746;2023-11-21T01:43:05;91121.22;;;11.14;48.28
46778;BME280;32536;47.128;8.746;2023-11-21T01:45:34;91123.91;;;11.14;47.95
46778;BME280;32536;47.128;8.746;2023-11-21T01:48:02;91119.13;;;11.22;47.94
46778;BME280;32536;47.128;8.746;2023-11-21T01:50:29;91129.25;;;11.31;48.22
46778;BME280;32536;47.128;8.746;2023-11-21T01:52:56;91122.22;;;11.37;48.25
46778;BME280;32536;47.128;8.746;2023-11-21T01:55:23;91117.84;;;11.43;48.71
46778;BME280;32536;47.128;8.746;2023-11-21T01:57:50;91111.94;;;11.48;48.72
46778;BME280;32536;47.128;8.746;2023-11-21T02:00:17;91114.88;;;11.54;48.67
46778;BME280;32536;47.128;8.746;2023-11-21T02:02:45;91105.88;;;11.61;48.56
46778;BME280;32536;47.128;8.746;2023-11-21T02:05:17;91101.94;;;11.65;48.40
46778;BME280;32536;47.128;8.746;2023-11-21T02:07:45;91099.50;;;11.71;48.58
46778;BME280;32536;47.128;8.746;2023-11-21T02:10:14;91097.47;;;11.75;48.57
46778;BME280;32536;47.128;8.746;2023-11-21T02:12:42;91097.06;;;11.77;48.00
46778;BME280;32536;47.128;8.746;2023-11-21T02:15:10;91096.28;;;11.76;47.77
46778;BME280;32536;47.128;8.746;2023-11-21T02:17:46;91103.25;;;11.74;48.28
46778;BME280;32536;47.128;8.746;2023-11-21T02:20:17;91099.50;;;11.71;48.00
46778;BME280;32536;47.128;8.746;2023-11-21T02:22:50;91098.34;;;11.72;47.68
46778;BME280;32536;47.128;8.746;2023-11-21T02:25:30;91099.31;;;11.78;47.88
46778;BME280;32536;47.128;8.746;2023-11-21T02:28:03;91103.41;;;11.83;47.69
46778;BME280;32536;47.128;8.746;2023-11-21T02:30:30;91096.00;;;11.87;47.87
46778;BME280;32536;47.128;8.746;2023-11-21T02:33:01;91094.41;;;11.90;47.85
46778;BME280;32536;47.128;8.746;2023-11-21T02:35:28;91093.56;;;11.93;47.70
46778;BME280;32536;47.128;8.746;2023-11-21T02:37:56;91091.97;;;11.95;47.86
46778;BME280;32536;47.128;8.746;2023-11-21T02:40:23;91082.75;;;11.96;47.91
46778;BME280;32536;47.128;8.746;2023-11-21T02:42:52;91087.69;;;11.98;47.84
46778;BME280;32536;47.128;8.746;2023-11-21T02:45:20;91084.28;;;11.97;48.32
46778;BME280;32536;47.128;8.746;2023-11-21T02:47:47;91079.28;;;11.96;48.14
46778;BME280;32536;47.128;8.746;2023-11-21T02:50:15;91080.81;;;11.97;48.42
46778;BME280;32536;47.128;8.746;2023-11-21T02:52:42;91079.72;;;11.94;47.79
46778;BME280;32536;47.128;8.746;2023-11-21T02:55:09;91082.59;;;11.87;47.53
46778;BME280;32536;47.128;8.746;2023-11-21T02:57:35;91076.97;;;11.81;47.81
46778;BME280;32536;47.128;8.746;2023-11-21T03:00:03;91082.44;;;11.78;47.52
46778;BME280;32536;47.128;8.746;2023-11-21T03:02:33;91081.06;;;11.73;47.45
46778;BME280;32536;47.128;8.746;2023-11-21T03:05:06;91070.81;;;11.68;47.25
46778;BME280;32536;47.128;8.746;2023-11-21T03:07:36;91066.75;;;11.63;47.73
46778;BME280;32536;47.128;8.746;2023-11-21T03:10:04;91070.38;;;11.57;47.40
46778;BME280;32536;47.128;8.746;2023-11-21T03:12:31;91077.09;;;11.48;47.59
46778;BME280;32536;47.128;8.746;2023-11-21T03:14:58;91077.59;;;11.43;48.02
46778;BME280;32536;47.128;8.746;2023-11-21T03:17:25;91075.03;;;11.40;47.79
46778;BME280;32536;47.128;8.746;2023-11-21T03:19:52;91085.84;;;11.36;47.76
46778;BME280;32536;47.128;8.746;2023-11-21T03:22:19;91085.28;;;11.28;47.85
46778;BME280;32536;47.128;8.746;2023-11-21T03:24:45;91092.75;;;11.20;47.98
46778;BME280;32536;47.128;8.746;2023-11-21T03:27:12;91088.66;;;11.16;47.96
46778;BME280;32536;47.128;8.746;2023-11-21T03:29:39;91081.84;;;11.11;48.38
46778;BME280;32536;47.128;8.746;2023-11-21T03:32:06;91083.19;;;11.03;48.52
46778;BME280;32536;47.128;8.746;2023-11-21T03:34:55;91085.53;;;11.01;47.66
46778;BME280;32536;47.128;8.746;2023-11-21T03:37:24;91089.72;;;11.02;47.80
46778;BME280;32536;47.128;8.746;2023-11-21T03:39:50;91085.31;;;10.95;48.30
46778;BME280;32536;47.128;8.746;2023-11-21T03:42:17;91079.03;;;10.85;48.23
46778;BME280;32536;47.128;8.746;2023-11-21T03:44:44;91083.41;;;10.79;48.59
46778;BME280;32536;47.128;8.746;2023-11-21T03:47:11;91078.03;;;10.79;48.27
46778;BME280;32536;47.128;8.746;2023-11-21T03:49:37;91078.69;;;10.83;48.54
46778;BME280;32536;47.128;8.746;2023-11-21T03:52:05;91085.13;;;10.86;48.44
46778;BME280;32536;47.128;8.746;2023-11-21T03:54:33;91086.13;;;10.92;48.10
46778;BME280;32536;47.128;8.746;2023-11-21T03:57:00;91087.13;;;10.98;48.16
46778;BME280;32536;47.128;8.746;2023-11-21T03:59:26;91087.06;;;11.02;48.40
46778;BME280;32536;47.128;8.746;2023-11-21T04:01:55;91088.91;;;11.05;48.63
46778;BME280;32536;47.128;8.746;2023-11-21T04:04:22;91095.00;;;11.05;49.17
46778;BME280;32536;47.128;8.746;2023-11-21T04:06:49;91093.09;;;11.06;48.28
46778;BME280;32536;47.128;8.746;2023-11-21T04:09:17;91095.00;;;11.05;48.66
46778;BME280;32536;47.128;8.746;2023-11-21T04:11:44;91096.19;;;11.04;48.99
46778;BME280;32536;47.128;8.746;2023-11-21T04:14:11;91093.25;;;10.99;48.51
46778;BME280;32536;47.128;8.746;2023-11-21T04:16:38;91093.53;;;10.88;49.02
46778;BME280;32536;47.128;8.746;2023-11-21T04:19:08;91102.88;;;10.80;49.21
46778;BME280;32536;47.128;8.746;2023-11-21T04:21:41;91095.00;;;10.72;49.28
46778;BME280;32536;47.128;8.746;2023-11-21T04:24:08;91099.78;;;10.65;49.04
46778;BME280;32536;47.128;8.746;2023-11-21T04:26:35;91098.00;;;10.58;49.02
46778;BME280;32536;47.128;8.746;2023-11-21T04:29:02;91102.03;;;10.50;49.65
46778;BME280;32536;47.128;8.746;2023-11-21T04:31:29;91097.84;;;10.49;49.62
46778;BME280;32536;47.128;8.746;2023-11-21T04:33:56;91107.78;;;10.48;49.54
46778;BME280;32536;47.128;8.746;2023-11-21T04:36:22;91108.97;;;10.47;49.04
46778;BME280;32536;47.128;8.746;2023-11-21T04:38:49;91113.16;;;10.48;49.39
46778;BME280;32536;47.128;8.746;2023-11-21T04:41:16;91107.78;;;10.48;49.22
46778;BME280;32536;47.128;8.746;2023-11-21T04:43:43;91107.47;;;10.46;49.46
46778;BME280;32536;47.128;8.746;2023-11-21T04:46:10;91110.53;;;10.45;48.99
46778;BME280;32536;47.128;8.746;2023-11-21T04:48:37;91110.16;;;10.46;49.59
46778;BME280;32536;47.128;8.746;2023-11-21T04:51:04;91118.50;;;10.48;49.18
46778;BME280;32536;47.128;8.746;2023-11-21T04:53:31;91117.00;;;10.47;49.59
46778;BME280;32536;47.128;8.746;2023-11-21T04:55:57;91118.94;;;10.47;49.04
46778;BME280;32536;47.128;8.746;2023-11-21T04:58:24;91122.53;;;10.40;49.48
46778;BME280;32536;47.128;8.746;2023-11-21T05:00:51;91122.03;;;10.25;49.78
46778;BME280;32536;47.128;8.746;2023-11-21T05:03:17;91117.72;;;10.11;50.14
46778;BME280;32536;47.128;8.746;2023-11-21T05:05:44;91115.69;;;9.99;49.67
46778;BME280;32536;47.128;8.746;2023-11-21T05:08:11;91121.91;;;9.92;49.62
46778;BME280;32536;47.128;8.746;2023-11-21T05:10:38;91121.19;;;9.91;49.61
46778;BME280;32536;47.128;8.746;2023-11-21T05:13:05;91114.03;;;9.85;49.90
46778;BME280;32536;47.128;8.746;2023-11-21T05:15:35;91114.94;;;9.78;49.63
46778;BME280;32536;47.128;8.746;2023-11-21T05:18:02;91120.34;;;9.74;49.58
46778;BME280;32536;47.128;8.746;2023-11-21T05:20:29;91114.22;;;9.74;49.61
46778;BME280;32536;47.128;8.746;2023-11-21T05:22:55;91112.75;;;9.73;49.73
46778;BME280;32536;47.128;8.746;2023-11-21T05:25:22;91118.41;;;9.75;49.70
46778;BME280;32536;47.128;8.746;2023-11-21T05:27:49;91119.94;;;9.76;49.77
46778;BME280;32536;47.128;8.746;2023-11-21T05:30:15;91128.72;;;9.76;50.27
46778;BME280;32536;47.128;8.746;2023-11-21T05:32:42;91126.44;;;9.75;49.74
46778;BME280;32536;47.128;8.746;2023-11-21T05:35:10;91126.38;;;9.78;49.99
46778;BME280;32536;47.128;8.746;2023-11-21T05:37:42;91126.31;;;9.82;49.53
46778;BME280;32536;47.128;8.746;2023-11-21T05:40:09;91138.81;;;9.89;49.74
46778;BME280;32536;47.128;8.746;2023-11-21T05:42:36;91146.78;;;9.92;50.03
46778;BME280;32536;47.128;8.746;2023-11-21T05:45:07;91135.22;;;9.96;50.01
46778;BME280;32536;47.128;8.746;2023-11-21T05:47:41;91146.28;;;9.98;50.11
46778;BME280;32536;47.128;8.746;2023-11-21T05:50:10;91148.47;;;10.03;49.72
46778;BME280;32536;47.128;8.746;2023-11-21T05:52:40;91144.63;;;10.04;50.05
46778;BME280;32536;47.128;8.746;2023-11-21T05:55:08;91136.19;;;10.05;50.30
46778;BME280;32536;47.128;8.746;2023-11-21T05:57:39;91141.53;;;10.05;50.32
46778;BME280;32536;47.128;8.746;2023-11-21T06:00:09;91144.97;;;10.06;50.04
46778;BME280;32536;47.128;8.746;2023-11-21T06:02:39;91151.81;;;10.07;50.29
46778;BME280;32536;47.128;8.746;2023-11-21T06:05:07;91155.34;;;10.04;50.75
46778;BME280;32536;47.128;8.746;2023-11-21T06:07:35;91150.72;;;10.04;50.39
46778;BME280;32536;47.128;8.746;2023-11-21T06:10:03;91151.97;;;10.00;50.62
46778;BME280;32536;47.128;8.746;2023-11-21T06:12:33;91155.41;;;10.00;50.19
46778;BME280;32536;47.128;8.746;2023-11-21T06:15:04;91154.72;;;9.96;51.43
46778;BME280;32536;47.128;8.746;2023-11-21T06:17:37;91157.84;;;9.91;51.30
46778;BME280;32536;47.128;8.746;2023-11-21T06:20:09;91157.19;;;9.87;50.70
46778;BME280;32536;47.128;8.746;2023-11-21T06:22:41;91152.56;;;9.87;50.87
46778;BME280;32536;47.128;8.746;2023-11-21T06:25:09;91157.53;;;9.89;50.50
46778;BME280;32536;47.128;8.746;2023-11-21T06:27:40;91155.59;;;9.89;50.40
46778;BME280;32536;47.128;8.746;2023-11-21T06:30:08;91153.69;;;9.90;50.38
46778;BME280;32536;47.128;8.746;2023-11-21T06:32:36;91160.53;;;9.91;50.72
46778;BME280;32536;47.128;8.746;2023-11-21T06:35:04;91154.09;;;9.88;50.70
46778;BME280;32536;47.128;8.746;2023-11-21T06:37:32;91154.50;;;9.87;50.78
46778;BME280;32536;47.128;8.746;2023-11-21T06:40:00;91162.53;;;9.87;50.62
46778;BME280;32536;47.128;8.746;2023-11-21T06:42:29;91161.09;;;9.82;50.47
46778;BME280;32536;47.128;8.746;2023-11-21T06:44:57;91162.00;;;9.75;50.57
46778;BME280;32536;47.128;8.746;2023-11-21T06:47:25;91167.72;;;9.74;50.68
46778;BME280;32536;47.128;8.746;2023-11-21T06:49:52;91169.59;;;9.77;50.70
46778;BME280;32536;47.128;8.746;2023-11-21T06:52:19;91171.53;;;9.76;50.52
46778;BME280;32536;47.128;8.746;2023-11-21T06:54:47;91170.00;;;9.75;50.30
46778;BME280;32536;47.128;8.746;2023-11-21T06:57:17;91181.44;;;9.76;50.35
46778;BME280;32536;47.128;8.746;2023-11-21T06:59:44;91185.66;;;9.77;51.07
46778;BME280;32536;47.128;8.746;2023-11-21T07:02:11;91186.00;;;9.79;50.65
46778;BME280;32536;47.128;8.746;2023-11-21T07:04:37;91181.38;;;9.80;50.56
46778;BME280;32536;47.128;8.746;2023-11-21T07:07:04;91182.91;;;9.81;50.92
46778;BME280;32536;47.128;8.746;2023-11-21T07:09:32;91187.16;;;9.78;51.07
46778;BME280;32536;47.128;8.746;2023-11-21T07:11:59;91187.56;;;9.76;50.66
46778;BME280;32536;47.128;8.746;2023-11-21T07:14:27;91192.16;;;9.76;50.82
46778;BME280;32536;47.128;8.746;2023-11-21T07:16:53;91191.81;;;9.74;50.96
46778;BME280;32536;47.128;8.746;2023-11-21T07:19:20;91192.22;;;9.72;50.91
46778;BME280;32536;47.128;8.746;2023-11-21T07:21:47;91191.06;;;9.73;50.91
46778;BME280;32536;47.128;8.746;2023-11-21T07:24:16;91192.69;;;9.67;51.01
46778;BME280;32536;47.128;8.746;2023-11-21T07:26:43;91187.75;;;9.66;51.27
46778;BME280;32536;47.128;8.746;2023-11-21T07:29:10;91185.09;;;9.66;51.18
46778;BME280;32536;47.128;8.746;2023-11-21T07:31:37;91193.50;;;9.64;51.68
46778;BME280;32536;47.128;8.746;2023-11-21T07:34:04;91195.44;;;9.64;51.54
46778;BME280;32536;47.128;8.746;2023-11-21T07:36:31;91194.34;;;9.61;51.35
46778;BME280;32536;47.128;8.746;2023-11-21T07:38:58;91185.88;;;9.63;51.10
46778;BME280;32536;47.128;8.746;2023-11-21T07:41:25;91190.06;;;9.64;51.20
46778;BME280;32536;47.128;8.746;2023-11-21T07:43:52;91177.88;;;9.63;51.20
46778;BME280;32536;47.128;8.746;2023-11-21T07:46:19;91187.41;;;9.64;51.09
46778;BME280;32536;47.128;8.746;2023-11-21T07:48:46;91191.25;;;9.63;51.20
46778;BME280;32536;47.128;8.746;2023-11-21T07:51:13;91198.16;;;9.60;51.24
46778;BME280;32536;47.128;8.746;2023-11-21T07:53:40;91196.66;;;9.59;51.19
46778;BME280;32536;47.128;8.746;2023-11-21T07:56:08;91195.91;;;9.58;51.19
46778;BME280;32536;47.128;8.746;2023-11-21T07:58:35;91193.63;;;9.57;51.44
46778;BME280;32536;47.128;8.746;2023-11-21T08:01:03;91190.94;;;9.57;51.25
46778;BME280;32536;47.128;8.746;2023-11-21T08:03:30;91195.13;;;9.58;51.22
46778;BME280;32536;47.128;8.746;2023-11-21T08:06:00;91197.88;;;9.54;51.20
46778;BME280;32536;47.128;8.746;2023-11-21T08:08:29;91198.28;;;9.53;51.02
46778;BME280;32536;47.128;8.746;2023-11-21T08:10:56;91199.91;;;9.47;51.36
46778;BME280;32536;47.128;8.746;2023-11-21T08:13:26;91202.34;;;9.37;52.25
46778;BME280;32536;47.128;8.746;2023-11-21T08:15:54;91206.94;;;9.37;50.95
46778;BME280;32536;47.128;8.746;2023-11-21T08:18:28;91200.84;;;9.36;51.46
46778;BME280;32536;47.128;8.746;2023-11-21T08:20:55;91200.91;;;9.33;51.31
46778;BME280;32536;47.128;8.746;2023-11-21T08:23:23;91202.06;;;9.32;51.23
46778;BME280;32536;47.128;8.746;2023-11-21T08:25:53;91203.59;;;9.33;50.91
46778;BME280;32536;47.128;8.746;2023-11-21T08:28:20;91198.31;;;9.29;51.51
46778;BME280;32536;47.128;8.746;2023-11-21T08:30:52;91205.22;;;9.26;51.85
46778;BME280;32536;47.128;8.746;2023-11-21T08:33:20;91202.53;;;9.26;51.88
46778;BME280;32536;47.128;8.746;2023-11-21T08:35:46;91205.59;;;9.25;51.41
46778;BME280;32536;47.128;8.746;2023-11-21T08:38:13;91205.97;;;9.27;51.81
46778;BME280;32536;47.128;8.746;2023-11-21T08:40:40;91205.53;;;9.28;51.48
46778;BME280;32536;47.128;8.746;2023-11-21T08:43:07;91211.25;;;9.31;51.88
46778;BME280;32536;47.128;8.746;2023-11-21T08:45:34;91209.69;;;9.33;51.86
46778;BME280;32536;47.128;8.746;2023-11-21T08:48:01;91211.50;;;9.40;51.79
46778;BME280;32536;47.128;8.746;2023-11-21T08:50:28;91208.34;;;9.45;52.07
46778;BME280;32536;47.128;8.746;2023-11-21T08:52:55;91212.06;;;9.51;51.79
46778;BME280;32536;47.128;8.746;2023-11-21T08:55:22;91205.88;;;9.54;52.02
46778;BME280;32536;47.128;8.746;2023-11-21T08:57:49;91215.78;;;9.57;52.02
46778;BME280;32536;47.128;8.746;2023-11-21T09:00:16;91215.72;;;9.61;52.10
46778;BME280;32536;47.128;8.746;2023-11-21T09:02:44;91217.28;;;9.58;51.75
46778;BME280;32536;47.128;8.746;2023-11-21T09:05:12;91218.47;;;9.57;51.83
46778;BME280;32536;47.128;8.746;2023-11-21T09:07:41;91225.72;;;9.57;51.79
46778;BME280;32536;47.128;8.746;2023-11-21T09:10:08;91219.56;;;9.60;51.50
46778;BME280;32536;47.128;8.746;2023-11-21T09:12:36;91227.88;;;9.66;51.55
46778;BME280;32536;47.128;8.746;2023-11-21T09:15:05;91221.69;;;9.69;51.57
46778;BME280;32536;47.128;8.746;2023-11-21T09:17:33;91224.72;;;9.71;51.43
46778;BME280;32536;47.128;8.746;2023-11-21T09:20:00;91222.00;;;9.74;51.23
46778;BME280;32536;47.128;8.746;2023-11-21T09:22:29;91227.28;;;9.78;51.87
46778;BME280;32536;47.128;8.746;2023-11-21T09:24:57;91225.78;;;9.77;51.61
46778;BME280;32536;47.128;8.746;2023-11-21T09:27:24;91221.94;;;9.78;51.60
46778;BME280;32536;47.128;8.746;2023-11-21T09:29:54;91232.69;;;9.74;52.17
46778;BME280;32536;47.128;8.746;2023-11-21T09:32:21;91223.50;;;9.75;51.58
46778;BME280;32536;47.128;8.746;2023-11-21T09:35:06;91231.84;;;9.77;52.81
46778;BME280;32536;47.128;8.746;2023-11-21T09:37:36;91231.00;;;9.84;52.10
46778;BME280;32536;47.128;8.746;2023-11-21T09:40:04;91231.28;;;9.90;52.00
46778;BME280;32536;47.128;8.746;2023-11-21T09:43:14;91232.03;;;9.90;53.39
46778;BME280;32536;47.128;8.746;2023-11-21T09:45:46;91229.34;;;9.90;54.35
46778;BME280;32536;47.128;8.746;2023-11-21T09:48:14;91236.63;;;9.90;52.19
46778;BME280;32536;47.128;8.746;2023-11-21T09:50:43;91235.19;;;9.85;52.35
46778;BME280;32536;47.128;8.746;2023-11-21T09:53:17;91242.19;;;9.79;54.02
46778;BME280;32536;47.128;8.746;2023-11-21T09:55:48;91239.88;;;9.77;52.27
46778;BME280;32536;47.128;8.746;2023-11-21T09:58:17;91241.41;;;9.78;52.62
46778;BME280;32536;47.128;8.746;2023-11-21T10:00:46;91241.75;;;9.81;51.87
46778;BME280;32536;47.128;8.746;2023-11-21T10:03:15;91238.19;;;9.87;52.27
46778;BME280;32536;47.128;8.746;2023-11-21T10:05:43;91241.50;;;9.95;52.06
46778;BME280;32536;47.128;8.746;2023-11-21T10:08:12;91249.47;;;9.99;51.74
46778;BME280;32536;47.128;8.746;2023-11-21T10:10:46;91241.38;;;10.02;52.42
46778;BME280;32536;47.128;8.746;2023-11-21T10:13:18;91240.13;;;10.07;52.12
46778;BME280;32536;47.128;8.746;2023-11-21T10:15:49;91235.91;;;10.09;52.37
46778;BME280;32536;47.128;8.746;2023-11-21T10:18:17;91234.66;;;10.14;52.13
46778;BME280;32536;47.128;8.746;2023-11-21T10:20:44;91231.16;;;10.17;52.20
46778;BME280;32536;47.128;8.746;2023-11-21T10:23:19;91226.97;;;10.16;52.05
46778;BME280;32536;47.128;8.746;2023-11-21T10:25:47;91220.53;;;10.14;52.32
46778;BME280;32536;47.128;8.746;2023-11-21T10:28:15;91221.63;;;10.16;51.88
46778;BME280;32536;47.128;8.746;2023-11-21T10:30:42;91219.72;;;10.17;52.04
46778;BME280;32536;47.128;8.746;2023-11-21T10:33:10;91217.78;;;10.17;52.25
46778;BME280;32536;47.128;8.746;2023-11-21T10:35:46;91216.19;;;10.20;52.17
46778;BME280;32536;47.128;8.746;2023-11-21T10:38:20;91213.47;;;10.23;52.52
46778;BME280;32536;47.128;8.746;2023-11-21T10:40:49;91215.66;;;10.29;51.77
46778;BME280;32536;47.128;8.746;2023-11-21T10:43:17;91217.84;;;10.34;52.26
46778;BME280;32536;47.128;8.746;2023-11-21T10:45:44;91226.63;;;10.34;52.49
46778;BME280;32536;47.128;8.746;2023-11-21T10:48:15;91217.50;;;10.32;52.50
46778;BME280;32536;47.128;8.746;2023-11-21T10:50:46;91213.63;;;10.36;52.00
46778;BME280;32536;47.128;8.746;2023-11-21T10:53:13;91211.97;;;10.43;52.05
46778;BME280;32536;47.128;8.746;2023-11-21T10:55:39;91213.06;;;10.45;51.69
46778;BME280;32536;47.128;8.746;2023-11-21T10:58:07;91218.09;;;10.43;51.74
46778;BME280;32536;47.128;8.746;2023-11-21T11:00:37;91217.44;;;10.35;51.86
46778;BME280;32536;47.128;8.746;2023-11-21T11:03:06;91219.16;;;10.25;51.75
46778;BME280;32536;47.128;8.746;2023-11-21T11:05:40;91220.81;;;10.19;51.97
46778;BME280;32536;47.128;8.746;2023-11-21T11:08:12;91220.88;;;10.16;52.04
46778;BME280;32536;47.128;8.746;2023-11-21T11:10:50;91218.59;;;10.14;52.25
46778;BME280;32536;47.128;8.746;2023-11-21T11:13:18;91221.69;;;10.13;52.08
46778;BME280;32536;47.128;8.746;2023-11-21T11:15:48;91218.81;;;10.03;52.34
46778;BME280;32536;47.128;8.746;2023-11-21T11:18:15;91213.47;;;10.03;52.02
46778;BME280;32536;47.128;8.746;2023-11-21T11:20:43;91212.00;;;9.99;52.30
46778;BME280;32536;47.128;8.746;2023-11-21T11:26:50;91212.47;;;9.93;53.53
46778;BME280;32536;47.128;8.746;2023-11-21T11:29:58;91218.78;;;9.83;54.33
46778;BME280;32536;47.128;8.746;2023-11-21T11:36:16;91209.19;;;9.86;52.31
46778;BME280;32536;47.128;8.746;2023-11-21T11:38:49;91213.31;;;9.90;52.62
46778;BME280;32536;47.128;8.746;2023-11-21T11:41:28;91213.31;;;9.90;53.44
46778;BME280;32536;47.128;8.746;2023-11-21T11:44:00;91201.44;;;9.91;52.86
46778;BME280;32536;47.128;8.746;2023-11-21T11:46:41;91202.19;;;9.92;53.70
46778;BME280;32536;47.128;8.746;2023-11-21T11:49:30;91199.94;;;9.90;54.80
46778;BME280;32536;47.128;8.746;2023-11-21T11:52:36;91198.06;;;9.87;54.14
46778;BME280;32536;47.128;8.746;2023-11-21T11:55:13;91206.84;;;9.88;53.32
46778;BME280;32536;47.128;8.746;2023-11-21T11:57:45;91201.09;;;9.89;52.93
46778;BME280;32536;47.128;8.746;2023-11-21T12:00:20;91196.56;;;9.86;53.12
46778;BME280;32536;47.128;8.746;2023-11-21T12:02:52;91197.72;;;9.85;53.04
46778;BME280;32536;47.128;8.746;2023-11-21T12:05:22;91199.69;;;9.81;54.94
46778;BME280;32536;47.128;8.746;2023-11-21T12:07:57;91192.44;;;9.82;53.59
46778;BME280;32536;47.128;8.746;2023-11-21T12:10:31;91198.53;;;9.82;53.80
46778;BME280;32536;47.128;8.746;2023-11-21T12:13:01;91193.25;;;9.78;52.99
46778;BME280;32536;47.128;8.746;2023-11-21T12:15:29;91190.94;;;9.81;53.06
46778;BME280;32536;47.128;8.746;2023-11-21T12:17:57;91190.16;;;9.80;53.33
46778;BME280;32536;47.128;8.746;2023-11-21T12:20:25;91190.56;;;9.78;53.17
46778;BME280;32536;47.128;8.746;2023-11-21T12:22:55;91192.78;;;9.84;53.02
46778;BME280;32536;47.128;8.746;2023-11-21T12:25:26;91202.25;;;9.88;53.75
46778;BME280;32536;47.128;8.746;2023-11-21T12:27:55;91197.47;;;10.00;53.45
46778;BME280;32536;47.128;8.746;2023-11-21T12:30:24;91202.28;;;10.08;53.49
46778;BME280;32536;47.128;8.746;2023-11-21T12:32:55;91202.88;;;10.16;53.27
46778;BME280;32536;47.128;8.746;2023-11-21T12:35:30;91206.25;;;10.20;53.12
46778;BME280;32536;47.128;8.746;2023-11-21T12:38:00;91206.25;;;10.20;53.15
46778;BME280;32536;47.128;8.746;2023-11-21T12:40:31;91209.75;;;10.17;53.11
46778;BME280;32536;47.128;8.746;2023-11-21T12:42:59;91212.84;;;10.16;53.17
46778;BME280;32536;47.128;8.746;2023-11-21T12:45:28;91209.25;;;10.22;53.10
46778;BME280;32536;47.128;8.746;2023-11-21T12:48:01;91214.84;;;10.32;52.97
46778;BME280;32536;47.128;8.746;2023-11-21T12:50:30;91214.41;;;10.33;52.96
46778;BME280;32536;47.128;8.746;2023-11-21T12:53:11;91216.34;;;10.33;53.08
46778;BME280;32536;47.128;8.746;2023-11-21T12:55:38;91221.34;;;10.31;53.01
46778;BME280;32536;47.128;8.746;2023-11-21T12:58:07;91214.56;;;10.26;53.13
46778;BME280;32536;47.128;8.746;2023-11-21T13:00:48;91221.13;;;10.21;54.95
46778;BME280;32536;47.128;8.746;2023-11-21T13:03:17;91220.03;;;10.19;52.61
46778;BME280;32536;47.128;8.746;2023-11-21T13:05:51;91224.31;;;10.16;52.88
46778;BME280;32536;47.128;8.746;2023-11-21T13:08:21;91213.16;;;10.18;52.83
46778;BME280;32536;47.128;8.746;2023-11-21T13:10:53;91219.56;;;10.24;52.96
46778;BME280;32536;47.128;8.746;2023-11-21T13:13:22;91217.16;;;10.30;52.61
46778;BME280;32536;47.128;8.746;2023-11-21T13:15:55;91222.03;;;10.35;52.43
46778;BME280;32536;47.128;8.746;2023-11-21T13:18:23;91226.13;;;10.43;52.28
46778;BME280;32536;47.128;8.746;2023-11-21T13:20:56;91233.34;;;10.46;52.86
46778;BME280;32536;47.128;8.746;2023-11-21T13:23:25;91235.53;;;10.51;52.64